Accueil
METAR-TAF:

METAR-TAF

Aéroports :

Aéroport international de Sunan

Pyongyang, Corée du Nord

latitude: 39-02N, longitude: 125-47E, altitude: 36 m

METAR: absent

Heure: 21:04 (12:04 UTC)

Prévision

Le bulletin a été fait il y a 8 heures et 4 minutes, à 04:00 UTC
Prévision valable du 04 à 06 UTC au 05 à 06 UTC
Vent 16 kt de nord avec des rafales jusqu'à 25 kt
Visibilité 10 km ou plus
pas de nuages en-dessous de 1500 mètres et pas de cumulonimbus.
Evoluant progressivement
du 04 à 12 UTC au 04 à 14 UTC
Vent 12 kt de nord-ouest

TAF: ZKPY 040400Z 0406/0506 36008G13MPS CAVOK TX10/0406Z TN01/0421Z BECMG 0412/0414 32006MPS

Observations et prévisions météorologiques de plus de 4000 aéroports (messages METAR et TAF).

Les stations disponibles sont représentées par des disques jaunes et rouges sur la carte.

Passer la souris dessus pour voir le nom de la station.

Cliquer dessus pour voir les observations et prévisions météorologiques.

Pour changer de carte: cliquez sur les boutons verts avec une croix noire pour zoomer, sur le bouton vert avec un tiret pour effectuer un zoom arrière, ou sur les flèches vertes pour les cartes adjacentes.


METAR-TAF: